Time;durP1;ratioP1;P1;durP2;ratioP2;P2;SDS_P1;SDS_P2;PMS_P1;PMS_P2;Temp;Humidity;BMP_temperature;BMP_pressure;BME280_temperature;BME280_humidity;BME280_pressure;Samples;Min_cycle;Max_cycle;Signal;HPM_P1;HPM_P2
2021/12/08 00:00:50;;;;;;;2.78;0.70;;;12.30;51.00;;;;;;5094516;28;20055;-62
2021/12/08 00:03:16;;;;;;;2.80;0.52;;;12.30;51.00;;;;;;5075959;28;20542;-64
2021/12/08 00:05:44;;;;;;;3.97;1.13;;;12.30;51.30;;;;;;5076267;28;20040;-63
2021/12/08 00:08:10;;;;;;;2.75;0.57;;;12.30;51.20;;;;;;5076449;28;20044;-63
2021/12/08 00:13:29;;;;;;;3.22;0.90;;;12.30;51.20;;;;;;5076304;28;20055;-62
2021/12/08 00:15:58;;;;;;;2.58;0.73;;;12.30;51.20;;;;;;5094192;28;20032;-64
2021/12/08 00:18:27;;;;;;;2.60;0.68;;;12.30;51.10;;;;;;5093794;28;20039;-63
2021/12/08 00:20:56;;;;;;;4.22;0.80;;;12.30;51.30;;;;;;5094143;28;20044;-63
2021/12/08 00:23:24;;;;;;;4.65;0.90;;;12.30;51.30;;;;;;5076040;28;20050;-63
2021/12/08 00:25:50;;;;;;;3.25;0.63;;;12.30;51.40;;;;;;5093994;28;20036;-63
2021/12/08 00:28:16;;;;;;;2.00;0.52;;;12.30;51.50;;;;;;5075879;28;20089;-63
2021/12/08 00:30:46;;;;;;;3.63;0.70;;;12.30;51.50;;;;;;5082854;28;20051;-63
2021/12/08 00:33:13;;;;;;;3.75;0.98;;;12.30;51.70;;;;;;5095973;28;20050;-63
2021/12/08 00:35:40;;;;;;;3.13;0.68;;;12.30;51.70;;;;;;5114365;28;20036;-63
2021/12/08 00:38:09;;;;;;;2.78;0.85;;;12.40;51.40;;;;;;5095671;28;20043;-65
2021/12/08 00:40:35;;;;;;;2.85;0.60;;;12.70;51.10;;;;;;5114305;28;20138;-63
2021/12/08 00:43:06;;;;;;;3.78;0.52;;;12.90;50.60;;;;;;5114156;28;20425;-65
2021/12/08 00:45:33;;;;;;;4.50;0.65;;;13.20;50.10;;;;;;5096121;28;20086;-65
2021/12/08 00:47:59;;;;;;;2.88;0.45;;;13.70;49.40;;;;;;5095887;28;20074;-65
2021/12/08 00:50:31;;;;;;;3.03;0.50;;;14.10;48.40;;;;;;5078418;28;20052;-65
2021/12/08 00:52:57;;;;;;;2.90;0.50;;;14.50;47.50;;;;;;5075582;28;20353;-65
2021/12/08 00:55:25;;;;;;;2.25;0.30;;;14.90;46.80;;;;;;5075690;28;20095;-64
2021/12/08 00:57:52;;;;;;;2.53;0.45;;;15.20;45.90;;;;;;5093235;28;20098;-65
2021/12/08 01:00:22;;;;;;;2.90;0.60;;;15.50;45.20;;;;;;5075132;28;20535;-65
2021/12/08 01:02:48;;;;;;;1.42;0.40;;;15.80;44.70;;;;;;5075105;28;20062;-63
2021/12/08 01:05:18;;;;;;;1.58;0.60;;;16.10;44.20;;;;;;5075221;28;20120;-65
2021/12/08 01:07:47;;;;;;;4.43;0.60;;;16.20;43.80;;;;;;5075056;28;20476;-63
2021/12/08 01:10:18;;;;;;;1.98;0.45;;;16.40;43.40;;;;;;5093313;28;20040;-65
2021/12/08 01:12:44;;;;;;;2.45;0.50;;;16.50;43.10;;;;;;5093143;28;20032;-65
2021/12/08 01:15:11;;;;;;;1.65;0.38;;;16.70;42.90;;;;;;5074343;28;20036;-64
2021/12/08 01:17:38;;;;;;;0.75;0.20;;;16.80;42.40;;;;;;5074772;28;20544;-65
2021/12/08 01:20:07;;;;;;;1.85;0.43;;;16.90;42.40;;;;;;5074847;28;20040;-65
2021/12/08 01:22:33;;;;;;;1.33;0.47;;;17.00;42.10;;;;;;5074467;28;20043;-63
2021/12/08 01:24:59;;;;;;;3.45;0.40;;;17.20;42.00;;;;;;5074807;28;20364;-65
2021/12/08 01:27:29;;;;;;;1.13;0.20;;;17.20;41.70;;;;;;5091811;28;20043;-65
2021/12/08 01:29:55;;;;;;;3.65;0.50;;;17.20;41.70;;;;;;5092137;28;20087;-63
2021/12/08 01:32:21;;;;;;;1.55;0.20;;;17.30;41.60;;;;;;5092848;28;20431;-65
2021/12/08 01:34:46;;;;;;;2.22;0.50;;;17.30;41.60;;;;;;5092790;28;20491;-65
2021/12/08 01:37:12;;;;;;;2.35;0.45;;;17.30;41.60;;;;;;5091182;28;20442;-65
2021/12/08 01:39:41;;;;;;;2.20;0.40;;;17.30;41.50;;;;;;5092241;28;20040;-65
2021/12/08 01:42:15;;;;;;;1.38;0.60;;;17.40;41.50;;;;;;5074759;28;20054;-63
2021/12/08 01:47:27;;;;;;;2.20;0.30;;;17.10;41.60;;;;;;5092418;28;20044;-64
2021/12/08 01:49:53;;;;;;;1.58;0.20;;;17.00;41.80;;;;;;5073914;28;20093;-65
2021/12/08 01:52:19;;;;;;;1.30;0.20;;;17.00;41.90;;;;;;5092385;28;20036;-65
2021/12/08 01:54:44;;;;;;;1.90;0.30;;;17.00;42.00;;;;;;5074208;28;20093;-65
2021/12/08 01:57:10;;;;;;;1.98;0.40;;;16.90;42.00;;;;;;5092238;28;20036;-64
2021/12/08 01:59:36;;;;;;;2.13;0.50;;;16.90;42.10;;;;;;5073931;28;20051;-65
2021/12/08 02:02:02;;;;;;;2.15;0.40;;;16.90;42.20;;;;;;5074162;28;20036;-65
2021/12/08 02:04:31;;;;;;;3.03;0.30;;;16.80;42.40;;;;;;5074324;28;20076;-65
2021/12/08 02:06:58;;;;;;;2.08;0.40;;;16.80;42.40;;;;;;5074108;28;20484;-64
2021/12/08 02:09:24;;;;;;;1.63;0.30;;;16.70;42.40;;;;;;5092087;28;20032;-64
2021/12/08 02:11:55;;;;;;;1.58;0.30;;;16.70;42.50;;;;;;5091993;28;20040;-63
2021/12/08 02:14:22;;;;;;;2.00;0.30;;;16.70;42.50;;;;;;5073871;28;20475;-65
2021/12/08 02:16:50;;;;;;;3.70;0.50;;;16.80;42.40;;;;;;5092035;28;20028;-63
2021/12/08 02:19:15;;;;;;;1.15;0.60;;;16.80;42.40;;;;;;5073802;28;20442;-65
2021/12/08 02:21:42;;;;;;;1.02;0.47;;;16.80;42.40;;;;;;5074168;28;20072;-65
2021/12/08 02:24:11;;;;;;;1.10;0.20;;;16.80;42.40;;;;;;5091927;28;20119;-66
2021/12/08 02:26:39;;;;;;;0.73;0.20;;;16.90;42.50;;;;;;5073474;28;20506;-65
2021/12/08 02:29:10;;;;;;;2.83;0.32;;;16.90;42.30;;;;;;5092068;28;20123;-65
2021/12/08 02:31:46;;;;;;;1.65;0.50;;;16.90;42.10;;;;;;5091565;28;20054;-63
2021/12/08 02:48:05;;;;;;;1.30;0.30;;;17.00;42.10;;;;;;5073745;28;20083;-65
2021/12/08 02:50:37;;;;;;;1.52;0.63;;;16.90;42.40;;;;;;5073176;28;20048;-64
2021/12/08 02:53:04;;;;;;;1.67;0.30;;;16.90;42.40;;;;;;5073862;28;20044;-63
2021/12/08 02:55:30;;;;;;;0.98;0.30;;;16.80;42.40;;;;;;5091549;28;20039;-65
2021/12/08 02:58:00;;;;;;;1.50;0.20;;;16.80;42.60;;;;;;5073294;28;20047;-65
2021/12/08 03:00:31;;;;;;;1.75;0.30;;;16.80;42.70;;;;;;5091288;28;20048;-65
2021/12/08 03:02:57;;;;;;;;;;;16.80;42.70;;;;;;5073863;28;20404;-65
2021/12/08 03:05:25;;;;;;;2.58;0.30;;;16.80;42.60;;;;;;5091621;28;20003;-63
2021/12/08 03:07:51;;;;;;;1.77;0.60;;;16.90;42.70;;;;;;5073653;28;20085;-65
2021/12/08 03:10:22;;;;;;;2.00;0.40;;;16.90;42.60;;;;;;5073426;28;20048;-64
2021/12/08 03:12:47;;;;;;;1.05;0.30;;;16.90;42.60;;;;;;5073563;28;20370;-62
2021/12/08 03:15:14;;;;;;;1.98;0.40;;;16.90;42.50;;;;;;5091790;28;20115;-65
2021/12/08 03:17:41;;;;;;;1.23;0.30;;;16.90;42.60;;;;;;5091476;28;20086;-65
2021/12/08 03:20:11;;;;;;;1.42;0.40;;;16.90;42.70;;;;;;5091066;28;20506;-63
2021/12/08 03:22:43;;;;;;;0.98;0.30;;;16.90;42.70;;;;;;5091589;28;20051;-65
2021/12/08 03:25:12;;;;;;;1.50;0.40;;;17.00;42.80;;;;;;5091471;28;20048;-65
2021/12/08 03:27:49;;;;;;;2.13;0.40;;;17.00;42.80;;;;;;5091301;28;20044;-65
2021/12/08 03:30:22;;;;;;;1.30;0.30;;;17.00;42.70;;;;;;5091109;28;20056;-65
2021/12/08 03:32:47;;;;;;;1.38;0.20;;;17.00;42.70;;;;;;5073209;28;20048;-65
2021/12/08 03:35:16;;;;;;;1.60;0.35;;;17.00;42.70;;;;;;5091493;28;20055;-65
2021/12/08 03:37:46;;;;;;;0.70;0.40;;;17.10;42.70;;;;;;5073901;28;20040;-66
2021/12/08 03:40:16;;;;;;;2.10;0.40;;;17.10;42.60;;;;;;5092796;28;20044;-65
2021/12/08 03:42:43;;;;;;;0.80;0.30;;;17.10;42.50;;;;;;5094979;28;20040;-63
2021/12/08 03:45:14;;;;;;;2.17;0.60;;;17.10;42.60;;;;;;5076706;28;20094;-65
2021/12/08 03:47:43;;;;;;;0.73;0.30;;;17.20;42.60;;;;;;5076680;28;20113;-62
2021/12/08 03:50:13;;;;;;;1.52;0.40;;;17.20;42.60;;;;;;5094557;28;20143;-63
2021/12/08 03:52:39;;;;;;;1.52;0.30;;;17.30;42.50;;;;;;5076389;28;20066;-66
2021/12/08 03:55:08;;;;;;;0.82;0.43;;;17.30;42.50;;;;;;5076879;28;20062;-63
2021/12/08 03:57:34;;;;;;;1.52;0.35;;;17.30;42.50;;;;;;5076765;28;20559;-63
2021/12/08 04:00:00;;;;;;;1.88;0.30;;;17.30;42.50;;;;;;5076029;28;20115;-64
2021/12/08 04:02:27;;;;;;;1.52;0.38;;;17.30;42.50;;;;;;5076351;28;20135;-63
2021/12/08 04:04:53;;;;;;;1.35;0.30;;;17.30;42.50;;;;;;5076449;28;20502;-63
2021/12/08 04:07:22;;;;;;;1.90;0.38;;;17.40;42.50;;;;;;5076618;28;20046;-62
2021/12/08 04:09:49;;;;;;;3.38;0.40;;;17.40;42.40;;;;;;5076387;28;20093;-64
2021/12/08 04:12:19;;;;;;;1.88;0.40;;;17.40;42.50;;;;;;5076476;28;20044;-65
2021/12/08 04:14:51;;;;;;;2.95;0.40;;;17.30;42.60;;;;;;5076156;28;20036;-63
2021/12/08 04:17:25;;;;;;;1.73;0.30;;;17.30;42.60;;;;;;5094363;28;20041;-62
2021/12/08 04:19:53;;;;;;;1.10;0.30;;;17.20;42.70;;;;;;5093898;28;20044;-63
2021/12/08 04:22:31;;;;;;;2.53;0.38;;;17.20;42.80;;;;;;5094300;28;20059;-64
2021/12/08 04:25:02;;;;;;;2.30;0.40;;;17.20;43.60;;;;;;5094207;28;20059;-64
2021/12/08 04:27:35;;;;;;;3.05;0.73;;;17.20;42.90;;;;;;5076392;28;20051;-63
2021/12/08 04:30:05;;;;;;;2.58;0.57;;;17.10;43.00;;;;;;5075546;28;20502;-63
2021/12/08 04:32:33;;;;;;;1.65;0.55;;;17.10;43.10;;;;;;5075838;28;20055;-63
2021/12/08 04:35:00;;;;;;;1.17;0.63;;;17.10;43.10;;;;;;5094057;28;20035;-63
2021/12/08 04:37:31;;;;;;;0.50;0.25;;;17.10;43.20;;;;;;5075806;28;20511;-63
2021/12/08 04:40:27;;;;;;;0.90;0.52;;;17.10;43.30;;;;;;5075521;28;20044;-63
2021/12/08 04:43:11;;;;;;;2.35;0.50;;;17.10;43.30;;;;;;5093653;28;20036;-63
2021/12/08 05:07:36;;;;;;;1.25;0.35;;;17.10;43.60;;;;;;5089414;27;20360;-62
2021/12/08 05:10:09;;;;;;;1.33;0.45;;;17.10;43.60;;;;;;5088066;28;20048;-62
2021/12/08 05:12:36;;;;;;;1.52;0.30;;;17.20;43.60;;;;;;5087954;28;20044;-63
2021/12/08 05:15:12;;;;;;;1.80;0.82;;;17.20;43.60;;;;;;5089377;28;20098;-63
2021/12/08 05:17:44;;;;;;;1.73;0.30;;;17.30;43.60;;;;;;5088431;28;20036;-63
2021/12/08 05:20:18;;;;;;;2.03;0.68;;;17.30;43.50;;;;;;5088103;28;20072;-63
2021/12/08 05:22:49;;;;;;;1.15;0.30;;;17.30;43.50;;;;;;5089047;28;20090;-63
2021/12/08 05:25:20;;;;;;;1.88;0.30;;;17.40;43.30;;;;;;5087936;28;20159;-62
2021/12/08 05:27:49;;;;;;;1.92;0.28;;;17.40;43.30;;;;;;5087742;28;20036;-63
2021/12/08 05:30:24;;;;;;;1.00;0.20;;;17.40;43.20;;;;;;5074491;28;20033;-63
2021/12/08 05:32:51;;;;;;;0.90;0.20;;;17.40;43.10;;;;;;5065684;28;20044;-65
2021/12/08 05:35:20;;;;;;;1.42;0.73;;;17.40;43.10;;;;;;5068699;28;20041;-63
2021/12/08 05:37:46;;;;;;;0.90;0.20;;;17.40;43.20;;;;;;5068435;28;20031;-64
2021/12/08 05:40:19;;;;;;;1.58;0.28;;;17.40;43.20;;;;;;5068551;28;20032;-64
2021/12/08 05:42:45;;;;;;;2.47;0.47;;;17.40;43.20;;;;;;5067339;28;20045;-65
2021/12/08 05:45:17;;;;;;;1.08;0.30;;;17.40;43.30;;;;;;5067039;28;20055;-63
2021/12/08 05:47:45;;;;;;;1.40;0.20;;;17.30;43.30;;;;;;5067421;28;20044;-65
2021/12/08 05:50:18;;;;;;;1.70;0.30;;;17.30;43.30;;;;;;5081855;28;20055;-63
2021/12/08 05:52:44;;;;;;;1.10;0.35;;;17.30;43.40;;;;;;5088567;28;20476;-63
2021/12/08 05:55:13;;;;;;;1.35;0.20;;;17.30;43.40;;;;;;5088572;28;20032;-63
2021/12/08 05:57:42;;;;;;;1.67;0.20;;;17.30;43.50;;;;;;5088706;28;20036;-65
2021/12/08 06:00:12;;;;;;;2.85;0.68;;;17.20;43.50;;;;;;5087419;28;20083;-63
2021/12/08 06:02:39;;;;;;;1.08;0.20;;;17.20;43.50;;;;;;5086831;28;20050;-65
2021/12/08 06:05:08;;;;;;;1.33;0.40;;;17.20;43.70;;;;;;5087956;28;20032;-64
2021/12/08 06:07:34;;;;;;;1.98;0.30;;;17.10;43.80;;;;;;5088502;28;20041;-65
2021/12/08 06:10:04;;;;;;;1.70;0.20;;;17.00;43.90;;;;;;5087459;28;20059;-64
2021/12/08 06:12:30;;;;;;;0.73;0.20;;;17.00;44.00;;;;;;5088240;28;20044;-65
2021/12/08 06:14:56;;;;;;;1.08;0.20;;;16.90;44.10;;;;;;5087318;28;20483;-65
2021/12/08 06:17:26;;;;;;;1.10;0.20;;;17.00;44.20;;;;;;5081739;28;20040;-65
2021/12/08 06:19:53;;;;;;;1.63;0.20;;;16.90;45.00;;;;;;5073550;28;20376;-65
2021/12/08 06:22:22;;;;;;;1.50;0.40;;;16.90;44.30;;;;;;5074411;28;20119;-65
2021/12/08 06:24:48;;;;;;;2.10;0.20;;;16.90;44.30;;;;;;5073525;28;20120;-64
2021/12/08 06:27:17;;;;;;;2.17;0.70;;;16.90;44.30;;;;;;5073162;28;20054;-62
2021/12/08 06:29:44;;;;;;;1.80;0.40;;;16.80;44.40;;;;;;5074283;28;20097;-62
2021/12/08 06:32:11;;;;;;;2.88;0.20;;;16.80;44.60;;;;;;5072126;28;20045;-62
2021/12/08 06:34:39;;;;;;;1.65;0.20;;;16.80;45.00;;;;;;5073326;28;20048;-62
2021/12/08 06:37:13;;;;;;;0.90;0.20;;;16.80;45.20;;;;;;5072267;28;20052;-63
2021/12/08 06:39:43;;;;;;;2.33;0.30;;;16.80;45.30;;;;;;5073222;28;20063;-62
2021/12/08 06:42:13;;;;;;;1.30;0.20;;;16.90;46.20;;;;;;5072069;28;20041;-62
2021/12/08 06:44:45;;;;;;;2.22;0.28;;;16.90;45.60;;;;;;5068673;28;20604;-62
2021/12/08 06:47:17;;;;;;;1.47;0.10;;;17.00;45.70;;;;;;5067008;28;20045;-62
2021/12/08 06:49:45;;;;;;;1.42;0.20;;;17.00;45.60;;;;;;5066271;28;20789;-63
2021/12/08 06:52:18;;;;;;;0.47;0.10;;;17.00;45.40;;;;;;5067762;28;20332;-63
2021/12/08 06:54:48;;;;;;;1.38;0.38;;;17.00;45.30;;;;;;5069272;28;20036;-62
2021/12/08 06:57:21;;;;;;;0.82;0.20;;;17.00;45.30;;;;;;5070257;28;20037;-63
2021/12/08 07:00:18;;;;;;;2.22;0.20;;;17.00;45.20;;;;;;5070731;28;20043;-62
2021/12/08 07:02:51;;;;;;;0.65;0.25;;;17.00;45.30;;;;;;5067851;28;20044;-62
2021/12/08 07:05:28;;;;;;;1.23;0.20;;;17.00;45.50;;;;;;5065972;28;20069;-62
2021/12/08 07:07:59;;;;;;;0.90;0.20;;;16.90;45.40;;;;;;5068574;28;20045;-62
2021/12/08 07:10:27;;;;;;;;;;;17.00;45.50;;;;;;5063631;28;20392;-62
2021/12/08 07:13:00;;;;;;;1.20;0.20;;;17.00;45.40;;;;;;5052820;28;19931;-65
2021/12/08 07:15:38;;;;;;;3.80;0.30;;;17.10;45.10;;;;;;5032024;28;20052;-63
2021/12/08 07:18:09;;;;;;;1.48;0.20;;;17.20;44.90;;;;;;5049566;28;20070;-64
2021/12/08 07:20:43;;;;;;;;;;;17.10;44.60;;;;;;5052865;28;20044;-64
2021/12/08 07:23:14;;;;;;;1.23;0.20;;;17.20;44.70;;;;;;5058671;28;19916;-66
2021/12/08 07:25:41;;;;;;;2.42;0.20;;;17.30;44.50;;;;;;5058052;28;20075;-67
2021/12/08 07:28:11;;;;;;;5.93;0.40;;;17.30;44.40;;;;;;5046684;28;20575;-67
2021/12/08 07:30:44;;;;;;;3.40;0.25;;;17.40;44.20;;;;;;5054699;28;20496;-67
2021/12/08 07:33:10;;;;;;;1.42;0.30;;;17.60;44.00;;;;;;5052939;28;20047;-64
2021/12/08 07:35:42;;;;;;;1.85;0.17;;;17.80;43.60;;;;;;5056489;28;20037;-68
2021/12/08 07:38:22;;;;;;;2.85;0.50;;;18.10;43.20;;;;;;5054078;28;20044;-63
2021/12/08 07:40:54;;;;;;;;;;;18.10;42.70;;;;;;5057591;28;20421;-63
2021/12/08 07:43:24;;;;;;;2.60;0.20;;;18.00;42.60;;;;;;5056867;28;19916;-64
2021/12/08 07:46:02;;;;;;;3.80;0.40;;;18.00;42.80;;;;;;5067985;28;20099;-63
2021/12/08 07:48:34;;;;;;;3.28;0.35;;;17.80;42.90;;;;;;5052846;28;20044;-68
2021/12/08 07:51:07;;;;;;;6.38;1.48;;;17.80;43.90;;;;;;5053143;28;20040;-68
2021/12/08 07:53:34;;;;;;;1.00;0.30;;;17.80;43.50;;;;;;5057182;28;20040;-68
2021/12/08 07:56:04;;;;;;;2.65;0.30;;;17.60;43.60;;;;;;5050790;28;20151;-68
2021/12/08 07:58:32;;;;;;;3.08;0.30;;;17.60;43.80;;;;;;5049953;28;20095;-68
2021/12/08 08:01:02;;;;;;;2.88;0.30;;;17.60;44.20;;;;;;5050416;28;20037;-68
2021/12/08 08:03:31;;;;;;;2.30;0.43;;;17.50;44.20;;;;;;5055240;28;20036;-68
2021/12/08 08:05:59;;;;;;;1.40;0.20;;;17.50;44.30;;;;;;5054722;28;20056;-64
2021/12/08 08:08:29;;;;;;;2.72;0.30;;;17.40;44.30;;;;;;5051608;28;20048;-68
2021/12/08 08:10:57;;;;;;;;;;;17.40;44.40;;;;;;5047580;28;20944;-68
2021/12/08 08:13:24;;;;;;;3.13;0.40;;;17.40;44.40;;;;;;5050476;28;20195;-63
2021/12/08 08:16:05;;;;;;;1.98;0.40;;;17.30;44.50;;;;;;5067363;28;20556;-63
2021/12/08 08:18:35;;;;;;;1.95;0.40;;;17.30;44.70;;;;;;5058518;28;20480;-66
2021/12/08 08:21:10;;;;;;;2.17;0.38;;;17.20;44.70;;;;;;5043320;28;20052;-63
2021/12/08 08:23:37;;;;;;;1.70;0.30;;;17.20;44.80;;;;;;5043121;28;20449;-64
2021/12/08 08:26:07;;;;;;;1.67;0.38;;;17.10;45.70;;;;;;5049174;28;20163;-68
2021/12/08 08:28:34;;;;;;;2.35;0.20;;;17.10;45.70;;;;;;5050806;28;20040;-70
2021/12/08 08:31:13;;;;;;;5.90;0.40;;;17.00;44.90;;;;;;5059507;28;20059;-70
2021/12/08 08:33:41;;;;;;;2.95;0.20;;;17.00;45.60;;;;;;5043221;28;20041;-71
2021/12/08 08:36:16;;;;;;;1.92;0.25;;;17.00;46.40;;;;;;5053096;28;20136;-64
2021/12/08 08:41:40;;;;;;;4.70;0.30;;;17.00;46.80;;;;;;5113939;27;1156356;-70
2021/12/08 08:44:13;;;;;;;1.15;0.20;;;17.00;46.80;;;;;;5126921;27;20481;-69
2021/12/08 08:46:41;;;;;;;3.47;0.20;;;17.00;47.10;;;;;;5116953;27;20564;-64
2021/12/08 08:49:13;;;;;;;4.97;0.73;;;17.00;47.40;;;;;;5125374;27;20434;-64
2021/12/08 08:51:45;;;;;;;2.97;0.75;;;17.00;47.40;;;;;;5129970;27;20477;-65
2021/12/08 08:54:20;;;;;;;4.32;0.65;;;17.00;47.50;;;;;;5147332;27;20386;-63
2021/12/08 08:56:53;;;;;;;6.78;0.40;;;17.00;47.80;;;;;;5147185;27;20041;-69
2021/12/08 08:59:26;;;;;;;1.80;0.20;;;17.00;47.70;;;;;;5142119;27;20050;-63
2021/12/08 09:01:54;;;;;;;1.88;0.35;;;17.00;47.50;;;;;;5120221;27;20067;-67
2021/12/08 09:07:10;;;;;;;5.88;0.95;;;17.00;47.90;;;;;;5081840;27;20419;-62
2021/12/08 09:09:39;;;;;;;4.35;0.40;;;17.00;48.00;;;;;;5069825;28;20052;-67
2021/12/08 09:12:16;;;;;;;2.75;0.32;;;17.10;47.80;;;;;;5070255;28;20060;-65
2021/12/08 09:17:32;;;;;;;6.00;0.50;;;17.10;47.90;;;;;;5109789;27;20456;-63
2021/12/08 09:22:58;;;;;;;3.13;0.50;;;17.20;48.10;;;;;;5069547;28;20437;-66
2021/12/08 09:28:12;;;;;;;3.38;0.40;;;17.30;47.50;;;;;;5111615;27;20367;-66
2021/12/08 09:30:55;;;;;;;4.00;0.50;;;17.30;47.10;;;;;;5096408;28;20039;-67
2021/12/08 09:33:25;;;;;;;2.22;0.55;;;17.30;46.90;;;;;;5101759;28;20119;-67
2021/12/08 09:35:56;;;;;;;3.65;0.35;;;17.40;46.70;;;;;;5087232;28;20170;-67
2021/12/08 09:38:27;;;;;;;3.90;0.43;;;17.40;46.70;;;;;;5090715;28;20105;-63
2021/12/08 09:41:00;;;;;;;3.50;0.70;;;17.40;46.50;;;;;;5095118;28;20055;-63
2021/12/08 09:43:33;;;;;;;1.63;0.32;;;17.40;46.20;;;;;;5113525;27;20051;-65
2021/12/08 09:46:19;;;;;;;4.00;0.85;;;17.40;46.10;;;;;;5089000;28;20059;-66
2021/12/08 09:48:47;;;;;;;2.15;0.20;;;17.40;46.00;;;;;;5105387;28;20048;-67
2021/12/08 09:51:16;;;;;;;5.65;0.80;;;17.40;46.00;;;;;;5097194;28;20209;-65
2021/12/08 09:53:43;;;;;;;1.88;0.30;;;17.40;45.80;;;;;;5101487;27;20061;-65
2021/12/08 09:56:09;;;;;;;4.82;0.30;;;17.40;45.60;;;;;;5103378;28;20051;-66
2021/12/08 09:58:37;;;;;;;2.60;0.55;;;17.40;45.70;;;;;;5107047;27;20055;-66
2021/12/08 10:01:04;;;;;;;2.35;0.50;;;17.40;45.40;;;;;;5087033;28;20073;-62
2021/12/08 10:03:32;;;;;;;2.63;0.73;;;17.40;45.20;;;;;;5101642;28;20042;-65
2021/12/08 10:05:59;;;;;;;2.47;0.47;;;17.40;45.00;;;;;;5094497;28;20040;-67
2021/12/08 10:08:25;;;;;;;2.33;0.40;;;17.40;44.90;;;;;;5088654;28;20051;-63
2021/12/08 10:10:53;;;;;;;3.50;0.52;;;17.40;45.00;;;;;;5095448;28;20085;-62
2021/12/08 10:13:20;;;;;;;2.80;0.30;;;17.50;45.00;;;;;;5097004;28;20051;-63
2021/12/08 10:15:45;;;;;;;2.08;0.52;;;17.50;44.80;;;;;;5093150;28;20040;-66
2021/12/08 10:18:13;;;;;;;2.55;0.32;;;17.50;44.60;;;;;;5090701;28;20032;-66
2021/12/08 10:20:44;;;;;;;2.92;0.30;;;17.50;44.50;;;;;;5088829;27;20118;-64
2021/12/08 10:26:15;;;;;;;1.83;0.25;;;17.50;44.30;;;;;;5067657;27;21336;-65
2021/12/08 10:28:47;;;;;;;2.13;0.25;;;17.50;44.20;;;;;;5069134;28;20048;-66
2021/12/08 10:31:28;;;;;;;4.07;0.50;;;17.50;44.20;;;;;;5067015;28;20504;-66
2021/12/08 10:36:49;;;;;;;2.60;0.47;;;17.50;44.10;;;;;;5066663;27;20475;-63
2021/12/08 10:39:37;;;;;;;2.25;0.40;;;17.50;44.80;;;;;;5070169;28;20669;-66
2021/12/08 10:47:53;;;;;;;3.35;0.43;;;17.50;44.40;;;;;;5050863;27;21334;-64
2021/12/08 10:55:58;;;;;;;2.10;0.40;;;17.60;45.00;;;;;;5113176;27;20104;-63
2021/12/08 10:58:39;;;;;;;1.70;0.30;;;17.50;45.30;;;;;;5121828;27;20065;-63
2021/12/08 11:03:57;;;;;;;3.47;0.40;;;17.60;45.90;;;;;;5100280;27;20949;-64
2021/12/08 11:06:23;;;;;;;6.00;0.40;;;17.60;46.00;;;;;;5109525;28;20044;-65
2021/12/08 11:08:51;;;;;;;2.65;0.30;;;17.70;45.50;;;;;;5095632;28;20784;-63
2021/12/08 11:11:22;;;;;;;3.03;0.63;;;17.70;45.40;;;;;;5092779;28;20051;-63
2021/12/08 11:13:51;;;;;;;2.45;0.70;;;17.60;45.20;;;;;;5092638;28;20081;-63
2021/12/08 11:16:20;;;;;;;1.83;0.40;;;17.60;46.20;;;;;;5091274;28;20402;-62
2021/12/08 11:18:56;;;;;;;5.00;0.30;;;17.50;46.10;;;;;;5096787;28;20040;-62
2021/12/08 11:21:31;;;;;;;2.35;0.40;;;17.40;45.70;;;;;;5094016;28;20745;-67
2021/12/08 11:23:59;;;;;;;2.40;0.60;;;17.30;45.50;;;;;;5092838;28;20084;-62
2021/12/08 11:29:10;;;;;;;1.45;0.75;;;17.20;45.30;;;;;;5110756;27;1167252;-62
2021/12/08 11:31:41;;;;;;;2.05;0.22;;;17.00;45.80;;;;;;5108018;27;20076;-63
2021/12/08 11:36:59;;;;;;;4.00;0.63;;;17.00;45.80;;;;;;5122122;27;1168304;-63
2021/12/08 11:39:31;;;;;;;1.58;0.35;;;17.10;45.70;;;;;;5140389;27;20084;-63
2021/12/08 11:42:02;;;;;;;2.92;0.50;;;17.10;45.50;;;;;;5137264;27;20051;-64
2021/12/08 11:44:30;;;;;;;3.58;0.57;;;17.10;45.20;;;;;;5151674;27;20066;-64
2021/12/08 11:46:59;;;;;;;2.13;0.40;;;17.10;45.20;;;;;;5130753;27;20058;-64
2021/12/08 11:49:29;;;;;;;4.35;0.68;;;17.10;45.40;;;;;;5153950;27;20690;-64
2021/12/08 11:51:59;;;;;;;4.18;0.22;;;17.10;45.10;;;;;;5147479;27;20046;-64
2021/12/08 11:54:26;;;;;;;;;;;17.20;45.30;;;;;;5123313;27;20125;-63
2021/12/08 11:56:53;;;;;;;3.85;0.82;;;17.30;45.30;;;;;;5161469;27;19919;-63
2021/12/08 11:59:19;;;;;;;2.10;0.50;;;17.30;44.70;;;;;;5144247;27;20676;-64
2021/12/08 12:01:47;;;;;;;2.05;0.40;;;17.30;44.30;;;;;;5147276;27;20566;-64
2021/12/08 12:04:13;;;;;;;4.13;0.45;;;17.30;44.30;;;;;;5139165;27;20479;-63
2021/12/08 12:06:39;;;;;;;3.20;0.40;;;17.30;44.30;;;;;;5128510;27;20212;-63
2021/12/08 12:09:07;;;;;;;2.58;0.47;;;17.20;44.30;;;;;;5126889;27;20134;-63
2021/12/08 12:11:36;;;;;;;2.15;0.28;;;17.20;45.10;;;;;;5131944;27;20560;-59
2021/12/08 12:14:03;;;;;;;3.47;0.40;;;17.10;44.30;;;;;;5129494;27;20046;-60
2021/12/08 12:16:30;;;;;;;2.78;0.30;;;17.10;44.30;;;;;;5140918;27;20397;-61
2021/12/08 12:19:01;;;;;;;4.40;0.70;;;17.10;44.40;;;;;;5149144;27;20122;-66
2021/12/08 12:21:46;;;;;;;;;;;17.10;44.30;;;;;;5127360;27;20042;-66
2021/12/08 12:24:28;;;;;;;5.53;0.30;;;17.00;44.30;;;;;;5131444;27;20304;-64
2021/12/08 12:32:45;;;;;;;4.15;0.30;;;17.00;44.60;;;;;;5132862;27;20374;-63
2021/12/08 12:38:05;;;;;;;2.22;0.50;;;17.00;44.70;;;;;;5086297;27;1173100;-64
2021/12/08 12:40:40;;;;;;;1.60;0.30;;;17.00;44.80;;;;;;5090185;28;20040;-61
2021/12/08 12:43:07;;;;;;;2.17;0.30;;;16.90;44.70;;;;;;5117059;28;20039;-62
2021/12/08 12:45:36;;;;;;;3.88;0.52;;;16.90;44.90;;;;;;5107120;28;20042;-61
2021/12/08 12:48:17;;;;;;;2.97;0.30;;;16.90;45.00;;;;;;5108552;28;20074;-64
2021/12/08 12:51:03;;;;;;;2.75;0.28;;;17.00;45.30;;;;;;5125731;28;20454;-65
2021/12/08 12:59:20;;;;;;;2.22;0.43;;;17.00;44.70;;;;;;5098798;27;20355;-65
2021/12/08 13:01:48;;;;;;;3.38;0.22;;;16.90;44.70;;;;;;5090339;28;20044;-64
2021/12/08 13:04:20;;;;;;;2.47;0.30;;;16.90;44.70;;;;;;5092718;28;20036;-65
2021/12/08 13:06:52;;;;;;;4.65;0.47;;;16.80;44.80;;;;;;5093407;28;20225;-64
2021/12/08 13:09:52;;;;;;;2.53;0.30;;;16.80;44.70;;;;;;5097138;28;20529;-64
2021/12/08 13:18:11;;;;;;;1.77;0.30;;;16.90;44.70;;;;;;5087386;27;20425;-64
2021/12/08 13:20:44;;;;;;;2.55;0.65;;;16.90;44.70;;;;;;5084453;28;20090;-65
2021/12/08 13:23:11;;;;;;;2.85;0.40;;;16.90;44.60;;;;;;5087377;28;20071;-65
2021/12/08 13:31:26;;;;;;;2.53;0.30;;;16.90;44.20;;;;;;5088851;28;20417;-65
2021/12/08 13:39:26;;;;;;;1.77;0.30;;;17.00;45.00;;;;;;5129897;27;20841;-64
2021/12/08 13:41:56;;;;;;;3.45;0.80;;;17.00;44.10;;;;;;5128839;28;20048;-65
2021/12/08 13:47:08;;;;;;;2.70;0.50;;;17.00;44.00;;;;;;5129905;27;20361;-65
2021/12/08 13:49:47;;;;;;;3.95;0.40;;;17.10;43.80;;;;;;5119093;28;20139;-65
2021/12/08 13:54:53;;;;;;;2.33;0.30;;;17.00;43.80;;;;;;5152561;27;1159035;-65
2021/12/08 14:05:45;;;;;;;2.63;0.40;;;17.00;43.60;;;;;;5145747;27;1158174;-65
2021/12/08 14:11:10;;;;;;;1.73;0.25;;;17.00;43.70;;;;;;5129490;27;20868;-65
2021/12/08 14:13:39;;;;;;;2.25;0.43;;;17.00;43.60;;;;;;5122319;28;20047;-65
2021/12/08 14:16:09;;;;;;;2.80;0.50;;;17.00;43.60;;;;;;5129677;27;20031;-65
2021/12/08 14:18:39;;;;;;;1.98;0.40;;;17.00;43.40;;;;;;5129519;27;20382;-64
2021/12/08 14:26:31;;;;;;;2.10;0.40;;;16.90;43.50;;;;;;5130212;27;20382;-65
2021/12/08 14:29:00;;;;;;;2.50;0.20;;;16.90;43.50;;;;;;5130218;27;20390;-65
2021/12/08 14:37:09;;;;;;;1.88;0.30;;;16.90;43.60;;;;;;5107207;27;1178393;-65
2021/12/08 14:45:07;;;;;;;3.40;0.30;;;16.90;43.60;;;;;;5152841;27;1157052;-65
2021/12/08 14:47:36;;;;;;;2.83;0.40;;;16.90;43.80;;;;;;5153074;27;20046;-65
2021/12/08 14:50:08;;;;;;;2.63;0.50;;;16.90;43.80;;;;;;5153167;27;20042;-65
2021/12/08 14:52:36;;;;;;;3.08;0.30;;;16.90;43.60;;;;;;5153029;27;20066;-64
2021/12/08 14:55:05;;;;;;;1.20;0.20;;;16.90;43.60;;;;;;5153024;27;20397;-65
2021/12/08 14:57:32;;;;;;;1.70;0.35;;;16.80;43.50;;;;;;5152159;27;20077;-65
2021/12/08 15:05:21;;;;;;;1.42;0.57;;;16.80;43.40;;;;;;5150214;27;20099;-65
2021/12/08 15:07:48;;;;;;;2.38;0.30;;;16.80;43.30;;;;;;5128534;28;20233;-65
2021/12/08 15:10:26;;;;;;;2.78;0.30;;;16.80;43.20;;;;;;5128397;28;20100;-65
2021/12/08 15:15:50;;;;;;;1.73;0.30;;;16.80;43.20;;;;;;5129747;27;20390;-65
2021/12/08 15:18:18;;;;;;;1.38;0.30;;;16.80;43.10;;;;;;5128964;28;20439;-65
2021/12/08 15:20:50;;;;;;;2.15;0.30;;;16.90;43.20;;;;;;5128823;28;20104;-65
2021/12/08 15:23:37;;;;;;;2.33;0.20;;;16.90;43.20;;;;;;5128518;28;20490;-65
2021/12/08 15:26:05;;;;;;;2.75;0.50;;;16.80;43.20;;;;;;5129912;27;20057;-65
2021/12/08 15:28:33;;;;;;;2.95;0.57;;;16.70;43.00;;;;;;5130273;27;20066;-65
2021/12/08 15:30:59;;;;;;;2.17;0.40;;;16.70;43.00;;;;;;5128942;28;20087;-65
2021/12/08 15:33:26;;;;;;;2.20;0.40;;;16.70;43.20;;;;;;5129973;28;20066;-65
2021/12/08 15:36:03;;;;;;;1.67;0.40;;;16.60;43.20;;;;;;5129769;27;20080;-65